createdAt,value
2023-04-18T00:01:35.372Z,63.80
2023-04-18T00:06:37.640Z,64.60
2023-04-18T00:11:41.184Z,67.00
2023-04-18T00:16:43.369Z,66.00
2023-04-18T00:21:45.582Z,66.80
2023-04-18T00:26:49.103Z,67.30
2023-04-18T00:31:51.245Z,67.40
2023-04-18T00:36:53.307Z,68.40
2023-04-18T00:41:56.869Z,68.40
2023-04-18T00:46:59.158Z,69.00
2023-04-18T00:52:01.420Z,68.30
2023-04-18T00:57:05.477Z,68.90
2023-04-18T01:02:07.730Z,68.30
2023-04-18T01:07:10.047Z,67.70
2023-04-18T01:12:13.751Z,68.50
2023-04-18T01:17:15.894Z,68.30
2023-04-18T01:22:19.594Z,68.20
2023-04-18T01:27:23.300Z,68.70
2023-04-18T01:32:25.491Z,68.30
2023-04-18T01:37:27.636Z,68.00
2023-04-18T01:42:31.181Z,68.10
2023-04-18T01:47:33.336Z,68.60
2023-04-18T01:52:35.534Z,68.20
2023-04-18T01:57:39.201Z,67.80
2023-04-18T02:02:41.797Z,68.20
2023-04-18T02:07:44.209Z,67.60
2023-04-18T02:12:47.720Z,67.70
2023-04-18T02:17:49.900Z,67.60
2023-04-18T02:22:52.664Z,67.30
2023-04-18T02:27:57.364Z,67.30
2023-04-18T02:32:59.573Z,67.30
2023-04-18T02:38:01.883Z,67.10
2023-04-18T02:43:05.350Z,67.30
2023-04-18T02:48:07.728Z,67.30
2023-04-18T02:53:10.022Z,67.30
2023-04-18T02:58:13.567Z,68.00
2023-04-18T03:03:18.771Z,68.20
2023-04-18T03:08:20.951Z,68.20
2023-04-18T03:13:24.640Z,67.80
2023-04-18T03:18:26.723Z,68.70
2023-04-18T03:23:29.112Z,69.00
2023-04-18T03:28:32.897Z,69.40
2023-04-18T03:33:35.009Z,70.30
2023-04-18T03:38:39.078Z,69.70
2023-04-18T03:43:42.563Z,70.80
2023-04-18T03:48:44.802Z,69.30
2023-04-18T03:53:46.915Z,69.60
2023-04-18T03:58:50.586Z,69.70
2023-04-18T04:03:52.894Z,70.30
2023-04-18T04:08:55.280Z,69.90
2023-04-18T04:13:58.872Z,69.90
2023-04-18T04:19:01.060Z,70.10
2023-04-18T04:24:03.260Z,69.50
2023-04-18T04:29:06.773Z,69.50
2023-04-18T04:34:08.918Z,69.40
2023-04-18T04:39:11.026Z,69.20
2023-04-18T04:44:14.798Z,69.00
2023-04-18T04:49:17.341Z,69.10
2023-04-18T04:54:19.403Z,69.30
2023-04-18T04:59:23.018Z,69.20
2023-04-18T05:04:25.385Z,69.00
2023-04-18T05:09:27.837Z,68.80
2023-04-18T05:14:31.413Z,68.60
2023-04-18T05:19:33.560Z,68.20
2023-04-18T05:24:35.787Z,67.60
2023-04-18T05:29:39.444Z,67.50
2023-04-18T05:34:41.714Z,66.10
2023-04-18T05:39:43.842Z,65.70
2023-04-18T05:44:47.401Z,65.00
2023-04-18T05:49:49.535Z,63.40
2023-04-18T05:54:51.714Z,62.20
2023-04-18T05:59:55.398Z,62.90
2023-04-18T06:04:57.631Z,62.40
2023-04-18T06:10:00.084Z,60.30
2023-04-18T06:15:04.370Z,58.30
2023-04-18T06:20:07.513Z,58.60
2023-04-18T06:25:10.239Z,55.80
2023-04-18T06:30:14.483Z,54.30
2023-04-18T06:35:17.829Z,53.90
2023-04-18T06:40:20.184Z,52.60
2023-04-18T06:45:23.765Z,52.40
2023-04-18T06:50:26.082Z,51.40
2023-04-18T06:55:28.300Z,51.70
2023-04-18T07:00:31.958Z,52.00
2023-04-18T07:05:34.095Z,50.10
2023-04-18T07:10:36.287Z,50.30
2023-04-18T07:15:39.870Z,50.50
2023-04-18T07:20:42.091Z,50.20
2023-04-18T07:25:44.237Z,47.60
2023-04-18T07:30:47.776Z,46.70
2023-04-18T07:35:50.439Z,47.30
2023-04-18T07:41:00.447Z,46.30
2023-04-18T07:46:05.190Z,45.30
2023-04-18T07:51:07.512Z,45.50
2023-04-18T07:56:10.194Z,43.80
2023-04-18T08:01:13.742Z,45.30
2023-04-18T08:06:15.982Z,44.60
2023-04-18T08:11:18.304Z,43.10
2023-04-18T08:16:22.230Z,45.10
2023-04-18T08:21:24.621Z,45.10
2023-04-18T08:26:26.864Z,45.00
2023-04-18T08:31:30.654Z,46.10
2023-04-18T08:36:32.880Z,47.30
2023-04-18T08:41:37.496Z,47.00
2023-04-18T08:46:41.043Z,46.00
2023-04-18T08:51:45.929Z,45.50
2023-04-18T08:56:48.334Z,46.70
2023-04-18T09:01:53.686Z,47.50
2023-04-18T09:06:55.895Z,47.60
2023-04-18T09:12:07.638Z,46.90
2023-04-18T09:17:12.575Z,49.00
2023-04-18T09:22:15.306Z,49.70
2023-04-18T09:27:17.484Z,49.00
2023-04-18T09:32:26.219Z,48.00
2023-04-18T09:37:29.487Z,47.30
2023-04-18T09:42:37.167Z,48.80
2023-04-18T09:47:40.883Z,49.30
2023-04-18T09:52:44.799Z,49.10
2023-04-18T09:57:48.756Z,49.10
2023-04-18T10:02:58.569Z,48.20
2023-04-18T10:08:00.895Z,48.50
2023-04-18T10:13:05.489Z,47.60
2023-04-18T10:18:15.881Z,47.90
2023-04-18T10:23:45.116Z,49.60
2023-04-18T10:28:52.183Z,50.30
2023-04-18T10:39:21.205Z,50.50
2023-04-18T10:44:24.014Z,48.70
2023-04-18T10:49:31.123Z,50.10
2023-04-18T10:54:38.688Z,49.10
2023-04-18T10:59:43.464Z,49.40
2023-04-18T11:04:51.637Z,48.20
2023-04-18T11:09:54.548Z,47.80
2023-04-18T11:14:56.762Z,48.50
2023-04-18T11:20:05.477Z,50.00
2023-04-18T11:25:08.086Z,50.90
2023-04-18T11:30:10.900Z,51.60
2023-04-18T11:35:15.736Z,50.10
2023-04-18T11:40:18.118Z,48.90
2023-04-18T11:45:20.323Z,45.40
2023-04-18T11:50:24.611Z,48.50
2023-04-18T11:55:26.743Z,49.00
2023-04-18T12:00:34.276Z,48.30
2023-04-18T12:05:39.886Z,48.80
2023-04-18T12:10:47.915Z,49.20
2023-04-18T12:15:50.174Z,49.30
2023-04-18T12:20:53.778Z,50.00
2023-04-18T12:25:59.796Z,50.00
2023-04-18T12:31:02.244Z,50.70
2023-04-18T12:36:07.375Z,51.10
2023-04-18T12:41:09.607Z,51.60
2023-04-18T12:46:13.126Z,51.60
2023-04-18T12:51:16.751Z,52.00
2023-04-18T12:56:19.018Z,53.00
2023-04-18T13:01:21.340Z,54.20
2023-04-18T13:06:25.168Z,54.40
2023-04-18T13:11:27.301Z,54.40
2023-04-18T13:16:29.645Z,53.80
2023-04-18T13:21:33.231Z,54.00
2023-04-18T13:26:35.495Z,55.20
2023-04-18T13:31:37.941Z,55.50
2023-04-18T13:36:41.736Z,56.50
2023-04-18T13:41:44.430Z,57.40
2023-04-18T13:46:46.654Z,57.10
2023-04-18T13:51:51.480Z,57.60
2023-04-18T13:56:54.167Z,57.20
2023-04-18T14:01:56.581Z,58.20
2023-04-18T14:07:00.484Z,58.30
2023-04-18T14:12:02.766Z,58.50
2023-04-18T14:17:05.156Z,58.10
2023-04-18T14:22:08.753Z,58.60
2023-04-18T14:27:10.964Z,59.30
2023-04-18T14:32:14.274Z,58.70
2023-04-18T14:37:18.388Z,58.50
2023-04-18T14:42:20.622Z,58.30
2023-04-18T14:47:24.149Z,58.60
2023-04-18T14:52:28.351Z,58.90
2023-04-18T14:57:30.510Z,58.90
2023-04-18T15:02:32.939Z,59.30
2023-04-18T15:07:36.981Z,59.50
2023-04-18T15:12:39.111Z,60.50
2023-04-18T15:17:41.446Z,61.00
2023-04-18T15:22:45.200Z,59.50
2023-04-18T15:27:47.604Z,59.70
2023-04-18T15:32:49.920Z,60.60
2023-04-18T15:37:53.578Z,60.20
2023-04-18T15:42:55.742Z,61.50
2023-04-18T15:47:58.014Z,61.80
2023-04-18T15:53:02.622Z,63.20
2023-04-18T15:58:07.685Z,62.40
2023-04-18T16:03:09.982Z,61.90
2023-04-18T16:08:13.932Z,61.70
2023-04-18T16:13:16.040Z,62.10
2023-04-18T16:18:18.184Z,61.80
2023-04-18T16:23:21.895Z,62.10
2023-04-18T16:28:24.174Z,62.00
2023-04-18T16:33:26.454Z,62.50
2023-04-18T16:38:30.316Z,62.50
2023-04-18T16:43:32.436Z,62.40
2023-04-18T16:48:34.645Z,62.10
2023-04-18T16:53:38.112Z,62.30
2023-04-18T16:58:40.645Z,62.50
2023-04-18T17:03:42.940Z,62.70
2023-04-18T17:08:46.574Z,62.30
2023-04-18T17:13:48.861Z,62.30
2023-04-18T17:18:51.163Z,62.60
2023-04-18T17:23:54.880Z,62.10
2023-04-18T17:28:57.122Z,62.10
2023-04-18T17:33:59.689Z,62.00
2023-04-18T17:39:03.519Z,62.10
2023-04-18T17:44:06.434Z,62.40
2023-04-18T17:49:11.643Z,62.20
2023-04-18T17:54:15.280Z,62.90
2023-04-18T17:59:17.545Z,62.80
2023-04-18T18:04:19.852Z,62.60
2023-04-18T18:09:23.670Z,63.00
2023-04-18T18:14:26.693Z,63.30
2023-04-18T18:19:28.875Z,63.00
2023-04-18T18:24:32.552Z,63.60
2023-04-18T18:29:35.043Z,63.90
2023-04-18T18:34:38.490Z,64.20
2023-04-18T18:39:42.446Z,64.60
2023-04-18T18:44:45.397Z,65.00
2023-04-18T18:49:47.611Z,65.10
2023-04-18T18:54:53.007Z,65.60
2023-04-18T18:59:57.596Z,65.60
2023-04-18T19:05:00.385Z,65.80
2023-04-18T19:10:05.509Z,66.50
2023-04-18T19:15:09.505Z,66.10
2023-04-18T19:20:12.196Z,66.50
2023-04-18T19:25:16.200Z,66.00
2023-04-18T19:30:19.194Z,66.10
2023-04-18T19:35:22.007Z,65.80
2023-04-18T19:40:27.227Z,66.10
2023-04-18T19:45:30.907Z,66.70
2023-04-18T19:50:33.235Z,66.90
2023-04-18T19:55:37.050Z,66.30
2023-04-18T20:00:39.903Z,67.10
2023-04-18T20:05:42.477Z,66.70
2023-04-18T20:10:46.888Z,66.80
2023-04-18T20:15:49.178Z,66.70
2023-04-18T20:20:51.727Z,66.50
2023-04-18T20:25:55.676Z,67.50
2023-04-18T20:30:57.994Z,67.20
2023-04-18T20:36:00.194Z,67.30
2023-04-18T20:41:03.908Z,67.60
2023-04-18T20:46:06.062Z,67.20
2023-04-18T20:51:08.382Z,68.40
2023-04-18T20:56:11.995Z,67.70
2023-04-18T21:01:14.207Z,68.20
2023-04-18T21:06:16.479Z,67.70
2023-04-18T21:11:20.019Z,68.40
2023-04-18T21:16:22.212Z,70.00
2023-04-18T21:21:25.010Z,70.70
2023-04-18T21:26:28.683Z,70.60
2023-04-18T21:31:32.402Z,72.00
2023-04-18T21:36:34.545Z,72.30
2023-04-18T21:41:38.706Z,73.70
2023-04-18T21:46:40.845Z,74.40
2023-04-18T21:51:42.945Z,74.00
2023-04-18T21:56:46.486Z,73.80
2023-04-18T22:01:48.735Z,74.90
2023-04-18T22:06:50.858Z,74.70
2023-04-18T22:11:54.370Z,76.00
2023-04-18T22:16:56.560Z,77.30
2023-04-18T22:21:59.150Z,76.30
2023-04-18T22:27:02.706Z,76.50
2023-04-18T22:32:05.259Z,77.20
2023-04-18T22:37:07.324Z,77.40
2023-04-18T22:42:10.869Z,78.90
2023-04-18T22:47:12.955Z,78.60
2023-04-18T22:52:15.217Z,77.70
2023-04-18T22:57:19.011Z,77.50
2023-04-18T23:02:21.159Z,77.30
2023-04-18T23:07:23.460Z,77.40
2023-04-18T23:12:27.141Z,77.10
2023-04-18T23:17:29.341Z,76.70
2023-04-18T23:22:31.446Z,76.70
2023-04-18T23:27:34.980Z,75.40
2023-04-18T23:32:37.159Z,75.10
2023-04-18T23:37:39.522Z,74.80
2023-04-18T23:42:43.076Z,74.70
2023-04-18T23:47:45.248Z,74.80
2023-04-18T23:52:47.441Z,74.70
2023-04-18T23:57:50.986Z,75.30
